LFSI 280730Z AUTO VRB02KT CAVOK 25/16 Q1018

ElémentsDécodage
LFSI Station météo située sur l'aérodrome de SAINT-DIZIER Robinson
280730Z émis le 28 du mois à 07h30 UTC
AUTO Bulletin édité par un automate
VRB02KT vent de direction variable, 02 noeuds
CAVOK Ceiling And Visibility OK
- Visibilité de 10 Km ou plus
- Pas de nuage au-dessous de 1500m ou au-dessous de l'altitude minimale du secteur la plus élevée (si>1500m) et absence de CB
- pas de temps présent significatif
25/16 température 25°C, point de rosée 16°C
 soit une humidité relative de 57%
Q1018 la pression au niveau de la mer (QNH) est de 1018 hPa